sensor_id;sensor_type;location;lat;lon;timestamp;P1;durP1;ratioP1;P2;durP2;ratioP2
67747;SDS011;54543;50.712;6.070;2023-07-08T00:01:55;7.10;;;4.07;;
67747;SDS011;54543;50.712;6.070;2023-07-08T00:04:20;5.60;;;3.80;;
67747;SDS011;54543;50.712;6.070;2023-07-08T00:06:47;5.10;;;3.58;;
67747;SDS011;54543;50.712;6.070;2023-07-08T00:09:12;5.88;;;3.50;;
67747;SDS011;54543;50.712;6.070;2023-07-08T00:11:38;5.75;;;3.47;;
67747;SDS011;54543;50.712;6.070;2023-07-08T00:14:03;6.45;;;3.20;;
67747;SDS011;54543;50.712;6.070;2023-07-08T00:16:29;6.72;;;3.78;;
67747;SDS011;54543;50.712;6.070;2023-07-08T00:18:55;6.05;;;3.67;;
67747;SDS011;54543;50.712;6.070;2023-07-08T00:21:20;6.45;;;3.60;;
67747;SDS011;54543;50.712;6.070;2023-07-08T00:23:49;5.70;;;3.45;;
67747;SDS011;54543;50.712;6.070;2023-07-08T00:26:20;5.85;;;3.47;;
67747;SDS011;54543;50.712;6.070;2023-07-08T00:28:49;6.07;;;3.05;;
67747;SDS011;54543;50.712;6.070;2023-07-08T00:31:14;5.47;;;3.55;;
67747;SDS011;54543;50.712;6.070;2023-07-08T00:33:40;4.70;;;2.97;;
67747;SDS011;54543;50.712;6.070;2023-07-08T00:36:13;7.35;;;4.15;;
67747;SDS011;54543;50.712;6.070;2023-07-08T00:38:40;5.50;;;3.60;;
67747;SDS011;54543;50.712;6.070;2023-07-08T00:44:14;5.53;;;3.67;;
67747;SDS011;54543;50.712;6.070;2023-07-08T00:47:02;6.30;;;4.03;;
67747;SDS011;54543;50.712;6.070;2023-07-08T00:49:40;5.72;;;3.78;;
67747;SDS011;54543;50.712;6.070;2023-07-08T00:52:18;6.20;;;4.07;;
67747;SDS011;54543;50.712;6.070;2023-07-08T00:54:45;5.57;;;3.72;;
67747;SDS011;54543;50.712;6.070;2023-07-08T00:57:13;5.20;;;3.25;;
67747;SDS011;54543;50.712;6.070;2023-07-08T00:59:42;5.72;;;3.70;;
67747;SDS011;54543;50.712;6.070;2023-07-08T01:02:13;5.72;;;3.10;;
67747;SDS011;54543;50.712;6.070;2023-07-08T01:04:56;6.15;;;4.03;;
67747;SDS011;54543;50.712;6.070;2023-07-08T01:07:26;5.95;;;3.55;;
67747;SDS011;54543;50.712;6.070;2023-07-08T01:09:57;5.22;;;3.53;;
67747;SDS011;54543;50.712;6.070;2023-07-08T01:12:33;6.00;;;3.88;;
67747;SDS011;54543;50.712;6.070;2023-07-08T01:15:02;4.95;;;3.58;;
67747;SDS011;54543;50.712;6.070;2023-07-08T01:17:31;4.82;;;3.30;;
67747;SDS011;54543;50.712;6.070;2023-07-08T01:20:00;5.38;;;3.40;;
67747;SDS011;54543;50.712;6.070;2023-07-08T01:22:31;6.15;;;3.83;;
67747;SDS011;54543;50.712;6.070;2023-07-08T01:25:00;5.03;;;3.45;;
67747;SDS011;54543;50.712;6.070;2023-07-08T01:27:29;7.05;;;4.43;;
67747;SDS011;54543;50.712;6.070;2023-07-08T01:29:59;6.97;;;4.30;;
67747;SDS011;54543;50.712;6.070;2023-07-08T01:32:26;6.18;;;3.80;;
67747;SDS011;54543;50.712;6.070;2023-07-08T01:34:52;6.57;;;4.50;;
67747;SDS011;54543;50.712;6.070;2023-07-08T01:38:01;6.15;;;3.90;;
67747;SDS011;54543;50.712;6.070;2023-07-08T01:40:24;6.05;;;3.75;;
67747;SDS011;54543;50.712;6.070;2023-07-08T01:42:52;5.65;;;3.97;;
67747;SDS011;54543;50.712;6.070;2023-07-08T01:45:19;6.95;;;4.50;;
67747;SDS011;54543;50.712;6.070;2023-07-08T01:48:08;6.25;;;4.22;;
67747;SDS011;54543;50.712;6.070;2023-07-08T01:50:38;7.13;;;4.15;;
67747;SDS011;54543;50.712;6.070;2023-07-08T01:53:44;7.28;;;4.50;;
67747;SDS011;54543;50.712;6.070;2023-07-08T01:56:11;6.50;;;4.00;;
67747;SDS011;54543;50.712;6.070;2023-07-08T01:58:38;6.32;;;4.32;;
67747;SDS011;54543;50.712;6.070;2023-07-08T02:01:04;6.35;;;4.65;;
67747;SDS011;54543;50.712;6.070;2023-07-08T02:03:30;9.55;;;6.10;;
67747;SDS011;54543;50.712;6.070;2023-07-08T02:05:56;7.78;;;5.00;;
67747;SDS011;54543;50.712;6.070;2023-07-08T02:08:22;8.70;;;5.57;;
67747;SDS011;54543;50.712;6.070;2023-07-08T02:10:50;7.80;;;5.45;;
67747;SDS011;54543;50.712;6.070;2023-07-08T02:13:19;10.80;;;5.25;;
67747;SDS011;54543;50.712;6.070;2023-07-08T02:15:47;9.02;;;5.53;;
67747;SDS011;54543;50.712;6.070;2023-07-08T02:18:16;9.05;;;5.50;;
67747;SDS011;54543;50.712;6.070;2023-07-08T02:20:46;10.05;;;7.28;;
67747;SDS011;54543;50.712;6.070;2023-07-08T02:23:12;7.72;;;5.82;;
67747;SDS011;54543;50.712;6.070;2023-07-08T02:25:38;8.65;;;5.75;;
67747;SDS011;54543;50.712;6.070;2023-07-08T02:28:04;8.82;;;5.25;;
67747;SDS011;54543;50.712;6.070;2023-07-08T02:30:33;11.38;;;7.68;;
67747;SDS011;54543;50.712;6.070;2023-07-08T02:33:01;14.40;;;8.07;;
67747;SDS011;54543;50.712;6.070;2023-07-08T02:35:28;10.70;;;7.47;;
67747;SDS011;54543;50.712;6.070;2023-07-08T02:37:56;8.65;;;5.85;;
67747;SDS011;54543;50.712;6.070;2023-07-08T02:40:24;8.77;;;5.53;;
67747;SDS011;54543;50.712;6.070;2023-07-08T02:42:52;8.82;;;6.30;;
67747;SDS011;54543;50.712;6.070;2023-07-08T02:45:19;8.75;;;5.28;;
67747;SDS011;54543;50.712;6.070;2023-07-08T02:47:44;9.30;;;5.43;;
67747;SDS011;54543;50.712;6.070;2023-07-08T02:50:12;7.93;;;4.75;;
67747;SDS011;54543;50.712;6.070;2023-07-08T02:52:38;8.27;;;5.03;;
67747;SDS011;54543;50.712;6.070;2023-07-08T02:55:05;8.07;;;5.25;;
67747;SDS011;54543;50.712;6.070;2023-07-08T02:57:31;8.00;;;5.05;;
67747;SDS011;54543;50.712;6.070;2023-07-08T02:59:58;8.57;;;5.53;;
67747;SDS011;54543;50.712;6.070;2023-07-08T03:02:25;8.50;;;5.13;;
67747;SDS011;54543;50.712;6.070;2023-07-08T03:04:51;9.02;;;5.45;;
67747;SDS011;54543;50.712;6.070;2023-07-08T03:07:19;11.25;;;7.35;;
67747;SDS011;54543;50.712;6.070;2023-07-08T03:09:45;10.27;;;5.53;;
67747;SDS011;54543;50.712;6.070;2023-07-08T03:12:11;8.23;;;5.50;;
67747;SDS011;54543;50.712;6.070;2023-07-08T03:14:38;11.05;;;6.45;;
67747;SDS011;54543;50.712;6.070;2023-07-08T03:17:04;10.20;;;6.30;;
67747;SDS011;54543;50.712;6.070;2023-07-08T03:19:31;8.98;;;6.10;;
67747;SDS011;54543;50.712;6.070;2023-07-08T03:21:57;8.07;;;5.18;;
67747;SDS011;54543;50.712;6.070;2023-07-08T03:24:24;9.50;;;5.93;;
67747;SDS011;54543;50.712;6.070;2023-07-08T03:26:49;8.88;;;5.35;;
67747;SDS011;54543;50.712;6.070;2023-07-08T03:29:20;11.35;;;5.78;;
67747;SDS011;54543;50.712;6.070;2023-07-08T03:31:46;10.70;;;5.53;;
67747;SDS011;54543;50.712;6.070;2023-07-08T03:34:12;8.60;;;6.07;;
67747;SDS011;54543;50.712;6.070;2023-07-08T03:36:44;8.73;;;5.55;;
67747;SDS011;54543;50.712;6.070;2023-07-08T03:39:15;9.27;;;5.43;;
67747;SDS011;54543;50.712;6.070;2023-07-08T03:41:41;10.48;;;6.30;;
67747;SDS011;54543;50.712;6.070;2023-07-08T03:44:07;11.45;;;6.68;;
67747;SDS011;54543;50.712;6.070;2023-07-08T03:46:32;9.23;;;5.78;;
67747;SDS011;54543;50.712;6.070;2023-07-08T03:48:58;9.68;;;6.00;;
67747;SDS011;54543;50.712;6.070;2023-07-08T03:51:25;9.82;;;5.13;;
67747;SDS011;54543;50.712;6.070;2023-07-08T03:53:53;11.23;;;6.88;;
67747;SDS011;54543;50.712;6.070;2023-07-08T03:56:18;9.30;;;5.80;;
67747;SDS011;54543;50.712;6.070;2023-07-08T03:58:44;9.60;;;5.78;;
67747;SDS011;54543;50.712;6.070;2023-07-08T04:01:19;9.05;;;5.32;;
67747;SDS011;54543;50.712;6.070;2023-07-08T04:03:46;10.65;;;6.80;;
67747;SDS011;54543;50.712;6.070;2023-07-08T04:06:12;8.93;;;6.10;;
67747;SDS011;54543;50.712;6.070;2023-07-08T04:08:39;9.35;;;5.75;;
67747;SDS011;54543;50.712;6.070;2023-07-08T04:11:04;8.60;;;5.63;;
67747;SDS011;54543;50.712;6.070;2023-07-08T04:13:31;10.05;;;5.65;;
67747;SDS011;54543;50.712;6.070;2023-07-08T04:15:59;9.32;;;5.70;;
67747;SDS011;54543;50.712;6.070;2023-07-08T04:18:27;8.57;;;5.45;;
67747;SDS011;54543;50.712;6.070;2023-07-08T04:20:53;7.40;;;4.80;;
67747;SDS011;54543;50.712;6.070;2023-07-08T04:23:19;8.70;;;5.20;;
67747;SDS011;54543;50.712;6.070;2023-07-08T04:25:45;8.68;;;5.57;;
67747;SDS011;54543;50.712;6.070;2023-07-08T04:28:16;6.90;;;4.78;;
67747;SDS011;54543;50.712;6.070;2023-07-08T04:30:42;10.10;;;4.70;;
67747;SDS011;54543;50.712;6.070;2023-07-08T04:33:08;9.48;;;4.90;;
67747;SDS011;54543;50.712;6.070;2023-07-08T04:35:35;6.70;;;4.35;;
67747;SDS011;54543;50.712;6.070;2023-07-08T04:38:04;8.88;;;5.50;;
67747;SDS011;54543;50.712;6.070;2023-07-08T04:40:35;7.32;;;4.88;;
67747;SDS011;54543;50.712;6.070;2023-07-08T04:43:08;9.13;;;5.78;;
67747;SDS011;54543;50.712;6.070;2023-07-08T04:45:38;11.38;;;5.57;;
67747;SDS011;54543;50.712;6.070;2023-07-08T04:48:05;8.32;;;5.32;;
67747;SDS011;54543;50.712;6.070;2023-07-08T04:50:39;8.52;;;5.10;;
67747;SDS011;54543;50.712;6.070;2023-07-08T04:53:06;8.60;;;4.93;;
67747;SDS011;54543;50.712;6.070;2023-07-08T04:55:32;10.38;;;5.18;;
67747;SDS011;54543;50.712;6.070;2023-07-08T04:57:59;8.52;;;5.15;;
67747;SDS011;54543;50.712;6.070;2023-07-08T05:00:27;8.73;;;5.47;;
67747;SDS011;54543;50.712;6.070;2023-07-08T05:02:52;8.63;;;5.18;;
67747;SDS011;54543;50.712;6.070;2023-07-08T05:05:19;9.73;;;6.25;;
67747;SDS011;54543;50.712;6.070;2023-07-08T05:07:45;8.50;;;5.72;;
67747;SDS011;54543;50.712;6.070;2023-07-08T05:10:10;8.48;;;4.57;;
67747;SDS011;54543;50.712;6.070;2023-07-08T05:12:36;10.00;;;5.80;;
67747;SDS011;54543;50.712;6.070;2023-07-08T05:15:02;11.98;;;7.55;;
67747;SDS011;54543;50.712;6.070;2023-07-08T05:17:29;12.18;;;7.50;;
67747;SDS011;54543;50.712;6.070;2023-07-08T05:19:55;10.95;;;7.18;;
67747;SDS011;54543;50.712;6.070;2023-07-08T05:22:23;10.15;;;6.55;;
67747;SDS011;54543;50.712;6.070;2023-07-08T05:24:51;8.05;;;5.22;;
67747;SDS011;54543;50.712;6.070;2023-07-08T05:27:18;10.15;;;6.13;;
67747;SDS011;54543;50.712;6.070;2023-07-08T05:29:45;6.80;;;4.45;;
67747;SDS011;54543;50.712;6.070;2023-07-08T05:32:11;9.80;;;6.82;;
67747;SDS011;54543;50.712;6.070;2023-07-08T05:34:37;11.55;;;7.20;;
67747;SDS011;54543;50.712;6.070;2023-07-08T05:37:02;10.25;;;6.63;;
67747;SDS011;54543;50.712;6.070;2023-07-08T05:39:29;9.60;;;6.20;;
67747;SDS011;54543;50.712;6.070;2023-07-08T05:41:55;8.73;;;5.35;;
67747;SDS011;54543;50.712;6.070;2023-07-08T05:44:21;8.32;;;5.53;;
67747;SDS011;54543;50.712;6.070;2023-07-08T05:46:46;7.90;;;5.20;;
67747;SDS011;54543;50.712;6.070;2023-07-08T05:49:12;8.57;;;5.68;;
67747;SDS011;54543;50.712;6.070;2023-07-08T05:51:37;8.77;;;5.93;;
67747;SDS011;54543;50.712;6.070;2023-07-08T05:54:03;8.82;;;5.20;;
67747;SDS011;54543;50.712;6.070;2023-07-08T05:56:28;20.65;;;9.35;;
67747;SDS011;54543;50.712;6.070;2023-07-08T05:58:55;10.27;;;5.28;;
67747;SDS011;54543;50.712;6.070;2023-07-08T06:01:21;20.33;;;9.93;;
67747;SDS011;54543;50.712;6.070;2023-07-08T06:03:47;10.57;;;7.22;;
67747;SDS011;54543;50.712;6.070;2023-07-08T06:06:13;10.90;;;6.55;;
67747;SDS011;54543;50.712;6.070;2023-07-08T06:08:38;17.40;;;10.68;;
67747;SDS011;54543;50.712;6.070;2023-07-08T06:11:04;15.40;;;9.27;;
67747;SDS011;54543;50.712;6.070;2023-07-08T06:13:29;20.15;;;13.30;;
67747;SDS011;54543;50.712;6.070;2023-07-08T06:15:55;10.00;;;7.15;;
67747;SDS011;54543;50.712;6.070;2023-07-08T06:18:21;8.63;;;6.53;;
67747;SDS011;54543;50.712;6.070;2023-07-08T06:20:53;20.33;;;11.88;;
67747;SDS011;54543;50.712;6.070;2023-07-08T06:23:20;13.30;;;8.05;;
67747;SDS011;54543;50.712;6.070;2023-07-08T06:25:46;12.15;;;7.57;;
67747;SDS011;54543;50.712;6.070;2023-07-08T06:28:12;8.43;;;5.60;;
67747;SDS011;54543;50.712;6.070;2023-07-08T06:30:37;7.43;;;5.25;;
67747;SDS011;54543;50.712;6.070;2023-07-08T06:33:03;7.68;;;4.88;;
67747;SDS011;54543;50.712;6.070;2023-07-08T06:35:29;9.43;;;5.70;;
67747;SDS011;54543;50.712;6.070;2023-07-08T06:37:55;7.93;;;4.78;;
67747;SDS011;54543;50.712;6.070;2023-07-08T06:40:20;6.60;;;4.13;;
67747;SDS011;54543;50.712;6.070;2023-07-08T06:42:46;9.40;;;5.25;;
67747;SDS011;54543;50.712;6.070;2023-07-08T06:45:12;8.13;;;5.15;;
67747;SDS011;54543;50.712;6.070;2023-07-08T06:47:38;7.25;;;4.57;;
67747;SDS011;54543;50.712;6.070;2023-07-08T06:50:04;6.50;;;4.40;;
67747;SDS011;54543;50.712;6.070;2023-07-08T06:52:30;7.63;;;4.78;;
67747;SDS011;54543;50.712;6.070;2023-07-08T06:55:01;6.45;;;4.20;;
67747;SDS011;54543;50.712;6.070;2023-07-08T06:57:27;5.95;;;3.88;;
67747;SDS011;54543;50.712;6.070;2023-07-08T06:59:53;8.30;;;4.70;;
67747;SDS011;54543;50.712;6.070;2023-07-08T07:02:19;6.60;;;4.30;;
67747;SDS011;54543;50.712;6.070;2023-07-08T07:04:45;7.32;;;4.60;;
67747;SDS011;54543;50.712;6.070;2023-07-08T07:07:10;8.75;;;4.93;;
67747;SDS011;54543;50.712;6.070;2023-07-08T07:09:36;10.25;;;6.35;;
67747;SDS011;54543;50.712;6.070;2023-07-08T07:12:02;21.27;;;17.23;;
67747;SDS011;54543;50.712;6.070;2023-07-08T07:14:27;26.88;;;22.60;;
67747;SDS011;54543;50.712;6.070;2023-07-08T07:16:55;35.63;;;28.02;;
67747;SDS011;54543;50.712;6.070;2023-07-08T07:19:21;36.05;;;28.55;;
67747;SDS011;54543;50.712;6.070;2023-07-08T07:21:47;18.75;;;15.10;;
67747;SDS011;54543;50.712;6.070;2023-07-08T07:24:12;14.60;;;10.77;;
67747;SDS011;54543;50.712;6.070;2023-07-08T07:26:38;25.83;;;18.48;;
67747;SDS011;54543;50.712;6.070;2023-07-08T07:29:05;14.00;;;10.77;;
67747;SDS011;54543;50.712;6.070;2023-07-08T07:31:31;9.52;;;7.15;;
67747;SDS011;54543;50.712;6.070;2023-07-08T07:33:58;8.23;;;5.75;;
67747;SDS011;54543;50.712;6.070;2023-07-08T07:36:25;7.30;;;5.38;;
67747;SDS011;54543;50.712;6.070;2023-07-08T07:38:51;18.33;;;15.02;;
67747;SDS011;54543;50.712;6.070;2023-07-08T07:41:16;10.30;;;6.75;;
67747;SDS011;54543;50.712;6.070;2023-07-08T07:43:42;15.45;;;12.82;;
67747;SDS011;54543;50.712;6.070;2023-07-08T07:46:07;10.30;;;7.60;;
67747;SDS011;54543;50.712;6.070;2023-07-08T07:48:35;9.50;;;5.70;;
67747;SDS011;54543;50.712;6.070;2023-07-08T07:51:01;7.20;;;4.80;;
67747;SDS011;54543;50.712;6.070;2023-07-08T07:53:27;6.05;;;4.00;;
67747;SDS011;54543;50.712;6.070;2023-07-08T07:55:59;8.65;;;5.97;;
67747;SDS011;54543;50.712;6.070;2023-07-08T07:58:25;9.48;;;4.82;;
67747;SDS011;54543;50.712;6.070;2023-07-08T08:00:51;6.43;;;4.28;;
67747;SDS011;54543;50.712;6.070;2023-07-08T08:03:16;6.50;;;4.55;;
67747;SDS011;54543;50.712;6.070;2023-07-08T08:05:42;10.40;;;8.02;;
67747;SDS011;54543;50.712;6.070;2023-07-08T08:08:08;6.47;;;4.63;;
67747;SDS011;54543;50.712;6.070;2023-07-08T08:10:34;10.32;;;7.95;;
67747;SDS011;54543;50.712;6.070;2023-07-08T08:13:01;7.35;;;5.15;;
67747;SDS011;54543;50.712;6.070;2023-07-08T08:15:27;7.05;;;4.93;;
67747;SDS011;54543;50.712;6.070;2023-07-08T08:17:52;6.63;;;4.07;;
67747;SDS011;54543;50.712;6.070;2023-07-08T08:20:18;6.57;;;4.15;;
67747;SDS011;54543;50.712;6.070;2023-07-08T08:22:45;5.95;;;3.80;;
67747;SDS011;54543;50.712;6.070;2023-07-08T08:25:11;7.05;;;3.90;;
67747;SDS011;54543;50.712;6.070;2023-07-08T08:27:37;8.45;;;5.88;;
67747;SDS011;54543;50.712;6.070;2023-07-08T08:30:04;7.38;;;5.65;;
67747;SDS011;54543;50.712;6.070;2023-07-08T08:32:30;8.15;;;5.88;;
67747;SDS011;54543;50.712;6.070;2023-07-08T08:34:56;12.13;;;7.68;;
67747;SDS011;54543;50.712;6.070;2023-07-08T08:37:22;9.25;;;7.22;;
67747;SDS011;54543;50.712;6.070;2023-07-08T08:39:48;9.30;;;6.53;;
67747;SDS011;54543;50.712;6.070;2023-07-08T08:42:16;20.25;;;16.65;;
67747;SDS011;54543;50.712;6.070;2023-07-08T08:44:59;13.35;;;9.95;;
67747;SDS011;54543;50.712;6.070;2023-07-08T08:50:24;11.10;;;8.63;;
67747;SDS011;54543;50.712;6.070;2023-07-08T08:52:49;19.95;;;17.33;;
67747;SDS011;54543;50.712;6.070;2023-07-08T08:55:16;11.98;;;8.63;;
67747;SDS011;54543;50.712;6.070;2023-07-08T09:00:36;14.45;;;11.27;;
67747;SDS011;54543;50.712;6.070;2023-07-08T09:06:10;25.33;;;20.50;;
67747;SDS011;54543;50.712;6.070;2023-07-08T09:08:37;26.67;;;20.38;;
67747;SDS011;54543;50.712;6.070;2023-07-08T09:14:20;16.33;;;13.13;;
67747;SDS011;54543;50.712;6.070;2023-07-08T09:16:52;25.45;;;15.20;;
67747;SDS011;54543;50.712;6.070;2023-07-08T09:19:37;34.60;;;20.33;;
67747;SDS011;54543;50.712;6.070;2023-07-08T09:22:17;35.55;;;21.20;;
67747;SDS011;54543;50.712;6.070;2023-07-08T09:25:15;23.00;;;14.25;;
67747;SDS011;54543;50.712;6.070;2023-07-08T09:27:46;57.30;;;24.80;;
67747;SDS011;54543;50.712;6.070;2023-07-08T09:30:16;21.17;;;12.43;;
67747;SDS011;54543;50.712;6.070;2023-07-08T09:32:45;48.35;;;20.80;;
67747;SDS011;54543;50.712;6.070;2023-07-08T09:35:16;42.50;;;19.95;;
67747;SDS011;54543;50.712;6.070;2023-07-08T09:37:49;16.67;;;10.63;;
67747;SDS011;54543;50.712;6.070;2023-07-08T09:45:41;32.83;;;16.50;;
67747;SDS011;54543;50.712;6.070;2023-07-08T09:48:23;51.50;;;23.55;;
67747;SDS011;54543;50.712;6.070;2023-07-08T09:50:52;48.15;;;20.90;;
67747;SDS011;54543;50.712;6.070;2023-07-08T09:53:19;44.05;;;22.33;;
67747;SDS011;54543;50.712;6.070;2023-07-08T09:55:45;54.72;;;25.83;;
67747;SDS011;54543;50.712;6.070;2023-07-08T09:58:13;43.90;;;21.20;;
67747;SDS011;54543;50.712;6.070;2023-07-08T10:01:01;24.45;;;13.18;;
67747;SDS011;54543;50.712;6.070;2023-07-08T10:03:36;35.00;;;18.05;;
67747;SDS011;54543;50.712;6.070;2023-07-08T10:06:03;20.08;;;11.38;;
67747;SDS011;54543;50.712;6.070;2023-07-08T10:08:45;13.80;;;7.03;;
67747;SDS011;54543;50.712;6.070;2023-07-08T10:13:48;29.02;;;16.50;;
67747;SDS011;54543;50.712;6.070;2023-07-08T10:16:34;23.20;;;12.95;;
67747;SDS011;54543;50.712;6.070;2023-07-08T10:19:00;16.60;;;9.63;;
67747;SDS011;54543;50.712;6.070;2023-07-08T10:27:27;6.70;;;4.55;;
67747;SDS011;54543;50.712;6.070;2023-07-08T10:30:03;7.07;;;4.85;;
67747;SDS011;54543;50.712;6.070;2023-07-08T10:38:34;7.78;;;5.38;;
67747;SDS011;54543;50.712;6.070;2023-07-08T10:41:25;13.02;;;8.45;;
67747;SDS011;54543;50.712;6.070;2023-07-08T10:44:04;20.77;;;13.38;;
67747;SDS011;54543;50.712;6.070;2023-07-08T10:46:40;9.55;;;7.47;;
67747;SDS011;54543;50.712;6.070;2023-07-08T11:05:44;19.08;;;15.35;;
67747;SDS011;54543;50.712;6.070;2023-07-08T11:13:53;9.68;;;7.22;;
67747;SDS011;54543;50.712;6.070;2023-07-08T11:22:11;26.77;;;16.25;;
67747;SDS011;54543;50.712;6.070;2023-07-08T11:32:39;27.77;;;20.50;;
67747;SDS011;54543;50.712;6.070;2023-07-08T11:35:18;27.20;;;21.55;;
67747;SDS011;54543;50.712;6.070;2023-07-08T11:37:46;35.17;;;26.58;;
67747;SDS011;54543;50.712;6.070;2023-07-08T11:40:19;32.03;;;27.50;;
67747;SDS011;54543;50.712;6.070;2023-07-08T11:42:59;33.97;;;25.30;;
67747;SDS011;54543;50.712;6.070;2023-07-08T11:45:31;14.65;;;11.70;;
67747;SDS011;54543;50.712;6.070;2023-07-08T11:50:37;21.33;;;16.63;;
67747;SDS011;54543;50.712;6.070;2023-07-08T11:53:08;17.33;;;15.10;;
67747;SDS011;54543;50.712;6.070;2023-07-08T11:55:38;13.48;;;10.65;;
67747;SDS011;54543;50.712;6.070;2023-07-08T12:03:50;21.05;;;16.05;;
67747;SDS011;54543;50.712;6.070;2023-07-08T12:08:52;22.33;;;17.35;;
67747;SDS011;54543;50.712;6.070;2023-07-08T12:11:18;23.13;;;20.23;;
67747;SDS011;54543;50.712;6.070;2023-07-08T12:13:48;23.70;;;20.55;;
67747;SDS011;54543;50.712;6.070;2023-07-08T12:16:20;25.77;;;22.48;;
67747;SDS011;54543;50.712;6.070;2023-07-08T12:18:47;28.33;;;23.77;;
67747;SDS011;54543;50.712;6.070;2023-07-08T12:21:13;25.10;;;21.88;;
67747;SDS011;54543;50.712;6.070;2023-07-08T12:23:48;27.17;;;23.45;;
67747;SDS011;54543;50.712;6.070;2023-07-08T12:26:14;20.77;;;17.30;;
67747;SDS011;54543;50.712;6.070;2023-07-08T12:28:40;21.77;;;18.83;;
67747;SDS011;54543;50.712;6.070;2023-07-08T12:31:14;25.25;;;20.50;;
67747;SDS011;54543;50.712;6.070;2023-07-08T12:33:43;18.88;;;14.73;;
67747;SDS011;54543;50.712;6.070;2023-07-08T12:36:18;14.68;;;12.48;;
67747;SDS011;54543;50.712;6.070;2023-07-08T12:38:45;21.02;;;17.42;;
67747;SDS011;54543;50.712;6.070;2023-07-08T12:41:14;14.07;;;11.93;;
67747;SDS011;54543;50.712;6.070;2023-07-08T12:43:42;13.25;;;10.30;;
67747;SDS011;54543;50.712;6.070;2023-07-08T12:46:11;9.60;;;7.07;;
67747;SDS011;54543;50.712;6.070;2023-07-08T12:48:38;13.45;;;10.48;;
67747;SDS011;54543;50.712;6.070;2023-07-08T12:51:11;17.30;;;14.57;;
67747;SDS011;54543;50.712;6.070;2023-07-08T12:53:39;10.60;;;7.78;;
67747;SDS011;54543;50.712;6.070;2023-07-08T12:56:05;15.57;;;13.07;;
67747;SDS011;54543;50.712;6.070;2023-07-08T12:58:40;17.13;;;13.93;;
67747;SDS011;54543;50.712;6.070;2023-07-08T13:01:11;10.23;;;8.05;;
67747;SDS011;54543;50.712;6.070;2023-07-08T13:03:45;15.35;;;13.45;;
67747;SDS011;54543;50.712;6.070;2023-07-08T13:06:16;14.82;;;12.23;;
67747;SDS011;54543;50.712;6.070;2023-07-08T13:08:43;15.63;;;13.27;;
67747;SDS011;54543;50.712;6.070;2023-07-08T13:11:11;14.48;;;11.73;;
67747;SDS011;54543;50.712;6.070;2023-07-08T13:13:42;10.45;;;7.70;;
67747;SDS011;54543;50.712;6.070;2023-07-08T13:16:13;6.93;;;5.68;;
67747;SDS011;54543;50.712;6.070;2023-07-08T13:18:40;7.63;;;5.38;;
67747;SDS011;54543;50.712;6.070;2023-07-08T13:21:08;8.25;;;5.70;;
67747;SDS011;54543;50.712;6.070;2023-07-08T13:23:36;10.93;;;9.15;;
67747;SDS011;54543;50.712;6.070;2023-07-08T13:26:24;12.35;;;10.93;;
67747;SDS011;54543;50.712;6.070;2023-07-08T13:28:49;15.65;;;12.57;;
67747;SDS011;54543;50.712;6.070;2023-07-08T13:31:23;11.85;;;7.47;;
67747;SDS011;54543;50.712;6.070;2023-07-08T13:33:53;8.80;;;5.80;;
67747;SDS011;54543;50.712;6.070;2023-07-08T13:36:24;11.98;;;10.27;;
67747;SDS011;54543;50.712;6.070;2023-07-08T13:39:05;12.30;;;11.00;;
67747;SDS011;54543;50.712;6.070;2023-07-08T13:41:33;12.98;;;11.45;;
67747;SDS011;54543;50.712;6.070;2023-07-08T13:44:06;10.35;;;8.52;;
67747;SDS011;54543;50.712;6.070;2023-07-08T13:49:15;7.03;;;5.32;;
67747;SDS011;54543;50.712;6.070;2023-07-08T13:51:45;6.88;;;4.38;;
67747;SDS011;54543;50.712;6.070;2023-07-08T13:54:25;6.65;;;4.07;;
67747;SDS011;54543;50.712;6.070;2023-07-08T13:56:59;5.20;;;4.22;;
67747;SDS011;54543;50.712;6.070;2023-07-08T13:59:26;7.18;;;5.60;;
67747;SDS011;54543;50.712;6.070;2023-07-08T14:01:52;9.60;;;4.72;;
67747;SDS011;54543;50.712;6.070;2023-07-08T14:04:22;6.80;;;4.53;;
67747;SDS011;54543;50.712;6.070;2023-07-08T14:06:54;13.60;;;11.68;;
67747;SDS011;54543;50.712;6.070;2023-07-08T14:09:20;13.27;;;10.95;;
67747;SDS011;54543;50.712;6.070;2023-07-08T14:11:47;9.90;;;7.53;;
67747;SDS011;54543;50.712;6.070;2023-07-08T14:14:14;27.38;;;24.50;;
67747;SDS011;54543;50.712;6.070;2023-07-08T14:16:44;18.10;;;16.20;;
67747;SDS011;54543;50.712;6.070;2023-07-08T14:19:20;12.45;;;8.95;;
67747;SDS011;54543;50.712;6.070;2023-07-08T14:21:59;9.55;;;7.28;;
67747;SDS011;54543;50.712;6.070;2023-07-08T14:24:26;7.32;;;6.13;;
67747;SDS011;54543;50.712;6.070;2023-07-08T14:26:52;26.05;;;23.35;;
67747;SDS011;54543;50.712;6.070;2023-07-08T14:29:18;21.80;;;19.55;;
67747;SDS011;54543;50.712;6.070;2023-07-08T14:31:44;11.18;;;9.98;;
67747;SDS011;54543;50.712;6.070;2023-07-08T14:34:22;11.73;;;9.68;;
67747;SDS011;54543;50.712;6.070;2023-07-08T14:36:51;13.85;;;11.25;;
67747;SDS011;54543;50.712;6.070;2023-07-08T14:39:17;9.38;;;6.05;;
67747;SDS011;54543;50.712;6.070;2023-07-08T14:41:45;14.00;;;12.13;;
67747;SDS011;54543;50.712;6.070;2023-07-08T14:44:23;14.48;;;11.68;;
67747;SDS011;54543;50.712;6.070;2023-07-08T14:46:51;8.35;;;6.20;;
67747;SDS011;54543;50.712;6.070;2023-07-08T14:49:20;8.38;;;6.18;;
67747;SDS011;54543;50.712;6.070;2023-07-08T14:51:47;8.00;;;5.28;;
67747;SDS011;54543;50.712;6.070;2023-07-08T14:54:13;5.45;;;4.20;;
67747;SDS011;54543;50.712;6.070;2023-07-08T14:56:39;4.97;;;3.90;;
67747;SDS011;54543;50.712;6.070;2023-07-08T14:59:06;5.88;;;4.50;;
67747;SDS011;54543;50.712;6.070;2023-07-08T15:01:44;6.53;;;4.38;;
67747;SDS011;54543;50.712;6.070;2023-07-08T15:04:14;6.07;;;4.07;;
67747;SDS011;54543;50.712;6.070;2023-07-08T15:06:41;8.38;;;7.18;;
67747;SDS011;54543;50.712;6.070;2023-07-08T15:09:07;11.30;;;8.77;;
67747;SDS011;54543;50.712;6.070;2023-07-08T15:11:33;12.23;;;11.02;;
67747;SDS011;54543;50.712;6.070;2023-07-08T15:14:00;7.82;;;6.55;;
67747;SDS011;54543;50.712;6.070;2023-07-08T15:16:27;7.82;;;6.25;;
67747;SDS011;54543;50.712;6.070;2023-07-08T15:18:53;8.07;;;5.75;;
67747;SDS011;54543;50.712;6.070;2023-07-08T15:21:18;5.95;;;4.40;;
67747;SDS011;54543;50.712;6.070;2023-07-08T15:23:44;6.28;;;4.50;;
67747;SDS011;54543;50.712;6.070;2023-07-08T15:26:13;5.63;;;4.32;;
67747;SDS011;54543;50.712;6.070;2023-07-08T15:28:45;10.23;;;5.25;;
67747;SDS011;54543;50.712;6.070;2023-07-08T15:31:17;7.05;;;5.75;;
67747;SDS011;54543;50.712;6.070;2023-07-08T15:33:45;6.63;;;5.47;;
67747;SDS011;54543;50.712;6.070;2023-07-08T15:36:11;6.57;;;5.00;;
67747;SDS011;54543;50.712;6.070;2023-07-08T15:38:37;6.30;;;4.97;;
67747;SDS011;54543;50.712;6.070;2023-07-08T15:41:04;7.15;;;4.80;;
67747;SDS011;54543;50.712;6.070;2023-07-08T15:43:34;6.15;;;4.60;;
67747;SDS011;54543;50.712;6.070;2023-07-08T15:46:01;7.18;;;6.18;;
67747;SDS011;54543;50.712;6.070;2023-07-08T15:48:27;8.00;;;5.35;;
67747;SDS011;54543;50.712;6.070;2023-07-08T15:50:53;5.88;;;5.18;;
67747;SDS011;54543;50.712;6.070;2023-07-08T15:53:18;8.35;;;7.15;;
67747;SDS011;54543;50.712;6.070;2023-07-08T15:55:44;9.13;;;7.90;;
67747;SDS011;54543;50.712;6.070;2023-07-08T15:58:13;10.63;;;9.45;;
67747;SDS011;54543;50.712;6.070;2023-07-08T16:00:40;19.27;;;17.30;;
67747;SDS011;54543;50.712;6.070;2023-07-08T16:03:09;10.23;;;8.35;;
67747;SDS011;54543;50.712;6.070;2023-07-08T16:05:37;11.57;;;8.65;;
67747;SDS011;54543;50.712;6.070;2023-07-08T16:08:03;12.05;;;9.68;;
67747;SDS011;54543;50.712;6.070;2023-07-08T16:10:29;14.32;;;11.95;;
67747;SDS011;54543;50.712;6.070;2023-07-08T16:12:55;10.13;;;7.38;;